Terminal Aerodrome Forecast
Issued by NWS Cleveland, OH

Home | Current Version | Previous Version | Text Only | Print | Product List | Glossary Off
Versions: 1 2 3 4 5 6 7 8 9 10 11 12 13 14 15 16 17

000
FTUS41 KCLE 231100
TAFCAK
TAF
KCAK 231139Z 2312/2412 32007KT 5SM BR SCT002 BKN015
      TEMPO 2312/2314 2SM BR OVC002
     FM231400 32007KT P6SM SCT002 BKN015
     FM231500 32007KT P6SM SCT025
     FM231700 32005KT P6SM SCT035
     FM232200 29003KT P6SM BKN250=

USA.gov is the U.S. government's official web portal to all federal, state and local government web resources and services.